Time,TemperatureF,DewpointF,PressureIn,WindDirection,WindDirectionDegrees,WindSpeedMPH,WindSpeedGustMPH,Humidity,HourlyPrecipIn,Conditions,Clouds,dailyrainin,SolarRadiationWatts/m^2,SoftwareType,DateUTC
2013-10-21 00:04:00,34.0,32.0,-100.00,WNW,291,8.0,12.0,93,0.05,,,0.33,0.000000,,2013-10-21 05:04:00,
2013-10-21 00:43:00,34.0,30.0,-100.00,WNW,293,9.0,13.0,85,0.02,,,0.35,0.000000,,2013-10-21 05:43:00,
2013-10-21 00:52:00,34.0,30.0,-100.00,WNW,293,9.0,13.0,85,0.02,,,0.35,0.000000,,2013-10-21 05:52:00,
2013-10-21 01:02:00,34.0,30.0,-100.00,WNW,293,9.0,13.0,85,0.02,,,0.35,0.000000,,2013-10-21 06:02:00,
2013-10-21 01:42:00,33.0,27.0,-100.00,WNW,282,8.0,13.0,78,0.00,,,0.35,0.000000,,2013-10-21 06:42:00,
2013-10-21 01:52:00,33.0,27.0,-100.00,WNW,282,8.0,13.0,78,0.00,,,0.35,0.000000,,2013-10-21 06:52:00,
2013-10-21 02:02:00,33.0,27.0,-100.00,WNW,282,8.0,13.0,78,0.00,,,0.35,0.000000,,2013-10-21 07:02:00,
2013-10-21 02:43:00,32.0,24.0,-100.00,WNW,284,9.0,13.0,72,0.00,,,0.35,0.000000,,2013-10-21 07:43:00,
2013-10-21 02:52:00,32.0,24.0,-100.00,WNW,284,9.0,13.0,72,0.00,,,0.35,0.000000,,2013-10-21 07:52:00,
2013-10-21 03:03:00,32.0,24.0,-100.00,WNW,284,9.0,13.0,72,0.00,,,0.35,0.000000,,2013-10-21 08:03:00,
2013-10-21 03:42:00,31.0,24.0,-100.00,West,273,8.0,15.0,74,0.00,,,0.35,0.000000,,2013-10-21 08:42:00,
2013-10-21 03:52:00,31.0,24.0,-100.00,West,273,8.0,15.0,74,0.00,,,0.35,0.000000,,2013-10-21 08:52:00,
2013-10-21 04:02:00,31.0,24.0,-100.00,West,273,8.0,15.0,74,0.00,,,0.35,0.000000,,2013-10-21 09:02:00,
2013-10-21 04:43:00,32.0,22.0,-100.00,West,271,10.0,15.0,67,0.00,,,0.35,0.000000,,2013-10-21 09:43:00,
2013-10-21 04:54:00,32.0,22.0,-100.00,West,271,10.0,15.0,67,0.00,,,0.35,0.000000,,2013-10-21 09:54:00,
2013-10-21 05:03:00,32.0,22.0,-100.00,West,271,10.0,15.0,67,0.00,,,0.35,0.000000,,2013-10-21 10:03:00,
2013-10-21 05:43:00,32.0,21.0,-100.00,West,270,10.0,16.0,64,0.00,,,0.35,0.000000,,2013-10-21 10:43:00,
2013-10-21 05:52:00,32.0,21.0,-100.00,West,270,10.0,16.0,64,0.00,,,0.35,0.000000,,2013-10-21 10:52:00,
2013-10-21 06:02:00,32.0,21.0,-100.00,West,270,10.0,16.0,64,0.00,,,0.35,0.000000,,2013-10-21 11:02:00,
2013-10-21 06:42:00,32.0,20.0,-100.00,West,275,10.0,18.0,62,0.00,,,0.35,0.000000,,2013-10-21 11:42:00,
2013-10-21 06:52:00,32.0,20.0,-100.00,West,275,10.0,18.0,62,0.00,,,0.35,0.000000,,2013-10-21 11:52:00,
2013-10-21 07:01:00,32.0,20.0,-100.00,West,275,10.0,18.0,62,0.00,,,0.35,0.000000,,2013-10-21 12:01:00,
2013-10-21 07:42:00,31.0,21.0,-100.00,West,281,9.0,16.0,65,0.00,,,0.35,0.000000,,2013-10-21 12:42:00,
2013-10-21 07:52:00,31.0,21.0,-100.00,West,281,9.0,16.0,65,0.00,,,0.35,0.000000,,2013-10-21 12:52:00,
2013-10-21 08:02:00,31.0,21.0,-100.00,West,281,9.0,16.0,65,0.00,,,0.35,0.000000,,2013-10-21 13:02:00,
2013-10-21 08:42:00,31.0,20.0,-100.00,West,276,10.0,16.0,64,0.00,,,0.35,3.000000,,2013-10-21 13:42:00,
2013-10-21 08:52:00,31.0,20.0,-100.00,West,276,10.0,16.0,64,0.00,,,0.35,3.000000,,2013-10-21 13:52:00,
2013-10-21 09:02:00,31.0,20.0,-100.00,West,276,10.0,16.0,64,0.00,,,0.35,3.000000,,2013-10-21 14:02:00,
2013-10-21 09:42:00,32.0,22.0,-100.00,West,276,12.0,19.0,65,0.00,,,0.35,38.000000,,2013-10-21 14:42:00,
2013-10-21 09:52:00,32.0,22.0,-100.00,West,276,12.0,19.0,65,0.00,,,0.35,38.000000,,2013-10-21 14:52:00,
2013-10-21 10:02:00,32.0,22.0,-100.00,West,276,12.0,19.0,65,0.00,,,0.35,38.000000,,2013-10-21 15:02:00,
2013-10-21 10:43:00,34.0,19.0,-100.00,WNW,288,12.0,20.0,53,0.01,,,0.36,250.000000,,2013-10-21 15:43:00,
2013-10-21 10:54:00,34.0,19.0,-100.00,WNW,288,12.0,20.0,53,0.01,,,0.36,250.000000,,2013-10-21 15:54:00,
2013-10-21 11:03:00,34.0,19.0,-100.00,WNW,288,12.0,20.0,53,0.01,,,0.36,250.000000,,2013-10-21 16:03:00,
2013-10-21 11:43:00,34.0,18.0,-100.00,West,281,14.0,21.0,52,0.00,,,0.36,298.000000,,2013-10-21 16:43:00,
2013-10-21 11:54:00,34.0,18.0,-100.00,West,281,14.0,21.0,52,0.00,,,0.36,298.000000,,2013-10-21 16:54:00,
2013-10-21 12:02:00,34.0,18.0,-100.00,West,281,14.0,21.0,52,0.00,,,0.36,298.000000,,2013-10-21 17:02:00,
2013-10-21 12:43:00,34.0,18.0,-100.00,WNW,283,12.0,20.0,52,0.00,,,0.36,406.000000,,2013-10-21 17:43:00,
2013-10-21 12:53:00,34.0,18.0,-100.00,WNW,283,12.0,20.0,52,0.00,,,0.36,406.000000,,2013-10-21 17:53:00,
2013-10-21 13:02:00,34.0,18.0,-100.00,WNW,283,12.0,20.0,52,0.00,,,0.36,406.000000,,2013-10-21 18:02:00,
2013-10-21 13:42:00,35.0,20.0,-100.00,West,263,14.0,22.0,54,0.00,,,0.36,432.000000,,2013-10-21 18:42:00,
2013-10-21 13:52:00,35.0,20.0,-100.00,West,263,14.0,22.0,54,0.00,,,0.36,432.000000,,2013-10-21 18:52:00,
2013-10-21 14:02:00,35.0,20.0,-100.00,West,263,14.0,22.0,54,0.00,,,0.36,432.000000,,2013-10-21 19:02:00,
2013-10-21 14:42:00,36.0,21.0,-100.00,West,273,13.0,24.0,54,0.01,,,0.37,400.000000,,2013-10-21 19:42:00,
2013-10-21 14:52:00,36.0,21.0,-100.00,West,273,13.0,24.0,54,0.01,,,0.37,400.000000,,2013-10-21 19:52:00,
2013-10-21 15:02:00,36.0,21.0,-100.00,West,273,13.0,24.0,54,0.01,,,0.37,400.000000,,2013-10-21 20:02:00,
2013-10-21 15:43:00,36.0,21.0,-100.00,West,280,13.0,23.0,55,0.01,,,0.33,268.000000,,2013-10-21 20:43:00,
2013-10-21 15:53:00,36.0,21.0,-100.00,West,280,13.0,23.0,55,0.01,,,0.33,268.000000,,2013-10-21 20:53:00,
2013-10-21 16:03:00,36.0,21.0,-100.00,West,280,13.0,23.0,55,0.01,,,0.33,268.000000,,2013-10-21 21:03:00,
2013-10-21 16:44:00,36.0,22.0,-100.00,WNW,287,11.0,22.0,57,0.01,,,0.26,162.000000,,2013-10-21 21:44:00,
2013-10-21 16:54:00,36.0,22.0,-100.00,WNW,287,11.0,22.0,57,0.01,,,0.26,162.000000,,2013-10-21 21:54:00,
2013-10-21 17:04:00,36.0,22.0,-100.00,WNW,287,11.0,22.0,57,0.01,,,0.26,162.000000,,2013-10-21 22:04:00,
2013-10-21 17:44:00,36.0,23.0,-100.00,WNW,289,10.0,26.0,59,0.00,,,0.20,72.000000,,2013-10-21 22:44:00,
2013-10-21 17:53:00,36.0,23.0,-100.00,WNW,289,10.0,26.0,59,0.00,,,0.20,72.000000,,2013-10-21 22:53:00,
2013-10-21 18:03:00,36.0,23.0,-100.00,WNW,289,10.0,26.0,59,0.00,,,0.20,72.000000,,2013-10-21 23:03:00,
2013-10-21 18:42:00,36.0,24.0,-100.00,WNW,294,7.0,16.0,62,0.00,,,0.15,23.000000,,2013-10-21 23:42:00,
2013-10-21 18:53:00,36.0,24.0,-100.00,WNW,294,7.0,16.0,62,0.00,,,0.15,23.000000,,2013-10-21 23:53:00,
2013-10-21 19:02:00,36.0,24.0,-100.00,WNW,294,7.0,16.0,62,0.00,,,0.15,23.000000,,2013-10-22 00:02:00,
2013-10-21 19:42:00,36.0,25.0,-100.00,WNW,283,7.0,14.0,65,0.00,,,0.13,1.000000,,2013-10-22 00:42:00,
2013-10-21 19:53:00,36.0,25.0,-100.00,WNW,283,7.0,14.0,65,0.00,,,0.13,1.000000,,2013-10-22 00:53:00,
2013-10-21 20:03:00,36.0,25.0,-100.00,WNW,283,7.0,14.0,65,0.00,,,0.13,1.000000,,2013-10-22 01:03:00,
2013-10-21 20:42:00,34.0,24.0,-100.00,West,267,9.0,16.0,66,0.00,,,0.12,0.000000,,2013-10-22 01:42:00,
2013-10-21 20:53:00,34.0,24.0,-100.00,West,267,9.0,16.0,66,0.00,,,0.12,0.000000,,2013-10-22 01:53:00,
2013-10-21 21:02:00,34.0,24.0,-100.00,West,267,9.0,16.0,66,0.00,,,0.12,0.000000,,2013-10-22 02:02:00,
2013-10-21 21:43:00,32.0,24.0,-100.00,West,278,6.0,12.0,71,0.00,,,0.12,0.000000,,2013-10-22 02:43:00,
2013-10-21 21:52:00,32.0,24.0,-100.00,West,278,6.0,12.0,71,0.00,,,0.12,0.000000,,2013-10-22 02:52:00,
2013-10-21 22:03:00,32.0,24.0,-100.00,West,278,6.0,12.0,71,0.00,,,0.12,0.000000,,2013-10-22 03:03:00,
2013-10-21 22:45:00,33.0,25.0,-100.00,West,272,7.0,10.0,72,0.00,,,0.11,0.000000,,2013-10-22 03:45:00,
2013-10-21 22:55:00,33.0,25.0,-100.00,West,272,7.0,10.0,72,0.00,,,0.11,0.000000,,2013-10-22 03:55:00,
2013-10-21 23:05:00,33.0,25.0,-100.00,West,272,7.0,10.0,72,0.00,,,0.11,0.000000,,2013-10-22 04:05:00,
2013-10-21 23:43:00,34.0,26.0,-100.00,West,275,8.0,11.0,73,0.00,,,0.06,0.000000,,2013-10-22 04:43:00,
2013-10-21 23:55:00,34.0,26.0,-100.00,West,275,8.0,11.0,73,0.00,,,0.06,0.000000,,2013-10-22 04:55:00,